KLAA

Lamar Municipal Airport

Lamar, Colorado, USA
METAR KLAA 231053Z AUTO 19019G28KT 10SM CLR 18/09 A2994 RMK AO2 PK WND 18034/1020 SLP089 T01780094 TSNO
Observed Flight Rules
May-23 @ 10:53 UTC (21 minutes ago) Visual Flight Rules
Wind Visibility Clouds
190° at 19 knots
 Gusting to 28 knots
10 miles
  • Clear skies
Temperatures Readings
Current 18°C / 64°F
Dewpoint 9°C / 48°F
Humidity 56%
Altimeter 29.94" Hg
Pressure 1008.9 hPa
Elevation 1119
METAR KLAA 231053Z AUTO 19019G28KT 10SM CLR 18/09 A2994 RMK AO2 PK WND 18034/1020 SLP089 T01780094 TSNO
Observed Flight Rules
May-23 @ 10:53 UTC
(21 minutes ago)
VFR
Wind Visibility
190° at 19 knots
 Gusting to 28 knots
10 miles
Clouds
  • Clear skies
Temperature Dewpoint
18°C / 64°F 9°C / 48°F
Humidity Altimeter Pressure
56% 29.94" Hg 1008.9 hPa